CDT,Max TemperatureF,Mean TemperatureF,Min TemperatureF,Max Dew PointF,MeanDew PointF,Min DewpointF,Max Humidity, Mean Humidity, Min Humidity, Max Sea Level PressureIn, Mean Sea Level PressureIn, Min Sea Level PressureIn, Max VisibilityMiles, Mean VisibilityMiles, Min VisibilityMiles, Max Wind SpeedMPH, Mean Wind SpeedMPH, Max Gust SpeedMPH,PrecipitationIn, CloudCover, Events, WindDirDegrees
2013-4-1,43,36,28,23,19,14,75,53,30,30.28,30.20,30.04,10,10,8,21,12,28,0.00,1,,329
2013-4-2,48,36,23,21,17,10,81,53,25,30.36,30.32,30.28,10,10,9,17,8,25,0.00,0,,333
2013-4-3,51,38,24,19,16,12,74,48,21,30.45,30.37,30.28,10,10,10,15,7,20,0.00,0,,91
2013-4-4,62,48,33,34,22,18,64,42,20,30.27,30.11,30.01,10,8,2,12,3,15,0.00,0,,264
2013-4-5,61,47,33,36,28,21,79,51,23,30.20,30.11,29.99,10,10,7,17,8,23,0.00,0,,66
2013-4-6,71,60,48,51,39,24,66,50,33,29.98,29.75,29.62,10,9,7,33,15,44,0.02,2,Rain-Thunderstorm,203
2013-4-7,71,54,37,43,41,37,92,64,35,29.95,29.85,29.74,10,8,3,15,5,20,T,0,,54
2013-4-8,74,64,54,59,55,46,100,81,61,29.83,29.71,29.55,10,8,1,30,8,39,0.67,6,Rain-Thunderstorm,166
2013-4-9,77,64,51,61,58,50,89,73,56,29.82,29.78,29.75,10,10,8,25,11,31,0.00,6,,162
2013-4-10,51,47,43,48,43,24,100,93,86,29.94,29.80,29.67,10,7,2,29,12,38,1.13,7,Rain-Thunderstorm,41
2013-4-11,48,43,37,45,40,30,92,84,76,29.67,29.64,29.61,10,7,1,25,10,29,0.05,8,Rain,245
2013-4-12,45,41,36,34,32,30,85,74,62,29.96,29.78,29.64,10,10,4,20,12,26,0.00,8,,269
2013-4-13,52,44,35,36,29,24,75,62,48,30.02,29.96,29.91,10,10,10,20,9,23,T,6,,274
2013-4-14,77,62,47,57,46,35,82,58,33,29.90,29.66,29.51,10,10,2,28,13,37,0.46,5,Rain-Thunderstorm,163
2013-4-15,60,51,42,52,45,34,100,74,47,30.02,29.83,29.67,10,10,7,18,8,24,0.02,7,Rain-Thunderstorm,294
2013-4-16,50,44,37,38,35,31,86,71,56,30.22,30.15,30.02,10,10,10,15,8,18,T,6,Rain,17
2013-4-17,60,52,43,59,44,37,100,83,66,30.19,29.95,29.65,10,7,1,31,15,44,1.56,8,Rain-Thunderstorm,68
2013-4-18,62,50,38,63,50,30,100,85,70,29.71,29.58,29.42,10,7,2,33,14,46,1.36,8,Rain-Thunderstorm,170
2013-4-19,43,38,33,30,28,26,76,65,53,30.07,29.77,29.65,10,10,8,24,14,35,T,7,,282
2013-4-20,49,40,30,30,27,24,78,60,42,30.35,30.25,30.09,10,10,10,12,5,16,0.00,1,,15
2013-4-21,62,51,39,41,36,29,70,59,47,30.38,30.31,30.22,10,10,10,22,13,30,0.00,3,,150
2013-4-22,69,58,47,51,39,35,86,57,28,30.23,30.11,29.97,10,10,8,17,9,24,0.03,3,Rain,174
2013-4-23,55,47,38,51,38,33,92,86,79,30.06,30.01,29.96,10,9,4,21,11,28,0.36,8,Rain,338
2013-4-24,52,43,34,34,30,28,82,62,41,30.16,30.12,30.05,10,10,9,17,11,23,T,3,Rain,285
2013-4-25,58,48,38,36,31,29,76,55,33,30.31,30.25,30.14,10,9,6,17,8,25,0.00,1,,274
2013-4-26,65,56,47,46,42,33,77,64,51,30.28,30.25,30.22,10,9,4,28,13,33,0.00,3,,186
2013-4-27,60,52,43,50,46,41,96,76,55,30.27,30.13,29.98,10,8,2,15,5,22,0.12,5,Rain,144
2013-4-28,70,59,48,52,49,46,100,74,47,29.98,29.92,29.83,10,7,0,13,7,17,0.00,3,Fog,327
2013-4-29,80,64,48,63,55,46,93,71,49,29.88,29.76,29.65,10,10,9,22,12,30,0.00,0,,180
2013-4-30,86,76,65,59,55,50,78,55,31,29.88,29.76,29.67,10,10,8,26,15,35,0.00,0,,195